createdAt,value
2022-11-29T09:29:39.621Z,0.9
2022-11-29T09:34:39.602Z,0.9
2022-11-29T09:39:39.340Z,1
2022-11-29T09:44:39.173Z,1
2022-11-29T09:49:39.309Z,0.9
2022-11-29T09:54:39.096Z,0.9
2022-11-29T09:59:38.756Z,0.9
2022-11-29T10:04:38.996Z,0.9
2022-11-29T10:09:39.458Z,0.9
2022-11-29T10:14:39.583Z,0.9
2022-11-29T10:19:38.891Z,1.3
2022-11-29T10:24:39.267Z,1.3
2022-11-29T10:29:39.674Z,0.9
2022-11-29T10:34:39.423Z,0.9
2022-11-29T10:39:38.925Z,0.9
2022-11-29T10:44:39.655Z,0.9
2022-11-29T10:49:38.922Z,0.8
2022-11-29T10:54:39.152Z,0.8
2022-11-29T10:59:39.414Z,0.9
2022-11-29T11:04:38.946Z,0.9
2022-11-29T11:09:39.817Z,1.1
2022-11-29T11:14:39.189Z,1.1
2022-11-29T11:19:39.474Z,1.2
2022-11-29T11:24:38.870Z,1.2
2022-11-29T11:29:39.171Z,0.9
2022-11-29T11:34:39.498Z,0.9
2022-11-29T11:39:38.915Z,0.9
2022-11-29T11:44:48.428Z,0.9
2022-11-29T11:49:39.045Z,0.9
2022-11-29T11:54:39.314Z,0.9
2022-11-29T11:59:39.513Z,0.9
2022-11-29T12:04:39.051Z,0.9
2022-11-29T12:09:39.494Z,0.9
2022-11-29T12:14:38.699Z,0.9
2022-11-29T12:19:39.290Z,0.9
2022-11-29T12:24:39.798Z,0.9
2022-11-29T12:29:39.163Z,0.9
2022-11-29T12:34:43.694Z,0.9
2022-11-29T12:39:38.919Z,0.9
2022-11-29T12:44:39.080Z,0.9
2022-11-29T12:49:39.247Z,0.9
2022-11-29T12:54:39.647Z,0.9
2022-11-29T12:59:38.970Z,0.8
2022-11-29T13:04:39.128Z,0.8
2022-11-29T13:09:39.355Z,0.9
2022-11-29T13:14:44.500Z,0.9
2022-11-29T13:19:38.890Z,1.1
2022-11-29T13:24:43.411Z,1.1
2022-11-29T13:29:39.808Z,0.9
2022-11-29T13:34:39.121Z,0.9
2022-11-29T13:39:39.527Z,0.9
2022-11-29T13:44:38.809Z,0.9
2022-11-29T13:49:39.103Z,0.9
2022-11-29T13:54:39.405Z,0.9
2022-11-29T13:59:47.732Z,0.9
2022-11-29T14:04:39.064Z,0.9
2022-11-29T14:09:39.411Z,0.9
2022-11-29T14:14:39.696Z,0.9
2022-11-29T14:19:38.983Z,0.9
2022-11-29T14:24:39.418Z,0.9
2022-11-29T14:29:39.669Z,0.9
2022-11-29T14:34:39.400Z,0.9
2022-11-29T14:39:39.748Z,1.3
2022-11-29T14:44:38.887Z,1.3
2022-11-29T14:49:39.877Z,1.3
2022-11-29T14:54:39.090Z,1.3
2022-11-29T14:59:39.695Z,1.2
2022-11-29T15:04:39.008Z,1.2
2022-11-29T15:09:39.646Z,0.9
2022-11-29T15:14:39.044Z,0.9
2022-11-29T15:19:39.889Z,1.3
2022-11-29T15:24:39.031Z,1.3
2022-11-29T15:29:39.530Z,0.9
2022-11-29T15:34:38.906Z,0.9
2022-11-29T15:39:39.097Z,0.9
2022-11-29T15:44:39.364Z,0.9
2022-11-29T15:49:39.064Z,0.9
2022-11-29T15:54:39.489Z,0.9
2022-11-29T15:59:39.807Z,0.9
2022-11-29T16:04:47.287Z,0.9
2022-11-29T16:09:39.914Z,0.7
2022-11-29T16:14:39.972Z,0.7
2022-11-29T16:19:39.387Z,0.6
2022-11-29T16:24:39.203Z,0.6
2022-11-29T16:29:39.620Z,1
2022-11-29T16:34:39.458Z,1
2022-11-29T16:39:39.903Z,0.9
2022-11-29T16:44:39.482Z,0.9
2022-11-29T16:49:39.037Z,0.9
2022-11-29T16:54:39.578Z,0.9
2022-11-29T16:59:39.715Z,0.9
2022-11-29T17:04:39.333Z,0.9
2022-11-29T17:09:39.086Z,0.4
2022-11-29T17:14:39.491Z,0.4
2022-11-29T17:19:39.841Z,0.9
2022-11-29T17:24:48.459Z,0.9
2022-11-29T17:29:39.971Z,0.9
2022-11-29T17:34:39.116Z,0.9
2022-11-29T17:39:39.342Z,0.9
2022-11-29T17:44:39.647Z,0.9
2022-11-29T17:49:39.895Z,0.9
2022-11-29T17:54:39.109Z,0.9
2022-11-29T17:59:39.429Z,0.9
2022-11-29T18:04:39.686Z,0.9
2022-11-29T18:09:39.188Z,0.9
2022-11-29T18:14:39.314Z,0.9
2022-11-29T18:19:39.599Z,0.4
2022-11-29T18:24:39.877Z,0.4
2022-11-29T18:29:47.003Z,0.4
2022-11-29T18:34:39.491Z,0.4
2022-11-29T18:39:39.781Z,0.5
2022-11-29T18:44:39.036Z,0.5
2022-11-29T18:49:39.391Z,0.9
2022-11-29T18:54:39.596Z,0.9
2022-11-29T18:59:39.911Z,0.9
2022-11-29T19:04:39.247Z,0.9
2022-11-29T19:09:39.530Z,1.1
2022-11-29T19:14:49.663Z,1.1
2022-11-29T19:19:39.341Z,0.8
2022-11-29T19:24:39.616Z,0.8
2022-11-29T19:29:40.208Z,0.9
2022-11-29T19:34:39.354Z,0.9
2022-11-29T19:39:39.591Z,0.9
2022-11-29T19:45:17.836Z,0.9
2022-11-29T19:49:46.904Z,0.4
2022-11-29T19:54:39.306Z,0.4
2022-11-29T19:59:39.543Z,0.9
2022-11-29T20:04:39.830Z,0.9
2022-11-29T20:09:39.317Z,0.9
2022-11-29T20:14:39.473Z,0.9
2022-11-29T20:19:39.941Z,0.6
2022-11-29T20:24:45.853Z,0.6
2022-11-29T20:29:39.477Z,0.4
2022-11-29T20:34:39.678Z,0.4
2022-11-29T20:39:40.102Z,0.9
2022-11-29T20:44:39.301Z,0.9
2022-11-29T20:49:39.493Z,0.4
2022-11-29T20:54:39.421Z,0.4
2022-11-29T20:59:39.756Z,0.4
2022-11-29T21:04:39.245Z,0.4
2022-11-29T21:09:39.247Z,0.9
2022-11-29T21:14:39.627Z,0.9
2022-11-29T21:19:40.076Z,0.9
2022-11-29T21:24:39.606Z,0.9
2022-11-29T21:29:39.599Z,0.9
2022-11-29T21:34:39.610Z,0.9
2022-11-29T21:39:40.114Z,0.9
2022-11-29T21:44:39.202Z,0.9
2022-11-29T21:49:39.658Z,0.9
2022-11-29T21:54:40.198Z,0.9
2022-11-29T21:59:39.530Z,0.9
2022-11-29T22:05:17.018Z,0.9
2022-11-29T22:09:39.449Z,0.9
2022-11-29T22:14:39.627Z,0.9
2022-11-29T22:19:39.892Z,0.9
2022-11-29T22:24:39.147Z,0.9
